Terminal Aerodrome Forecast
Issued by NWS

Home | Current Version | Previous Version | Text Only | Print | Product List | Glossary On
Versions: 1 2 3 4 5 6 7 8 9 10 11 12 13 14 15
000
FTUS43 KDLH 222300
TAFBRD
TAF
KBRD 222337Z 2300/2324 16008KT P6SM VCSH SKC WS020/18035KT
     FM230300 18007KT 6SM -RA SCT010 BKN080
     FM230900 20005KT P6SM SCT010 BKN040
     FM231600 23006KT P6SM SKC=

USA.gov is the U.S. government's official web portal to all federal, state and local government web resources and services.